Time;durP1;ratioP1;P1;durP2;ratioP2;P2;SDS_P1;SDS_P2;PMS_P1;PMS_P2;Temp;Humidity;BMP_temperature;BMP_pressure;BME280_temperature;BME280_humidity;BME280_pressure;Samples;Min_cycle;Max_cycle;Signal;HPM_P1;HPM_P2
2022/05/08 00:02:19;;;;;;;14.68;7.78;;;13.80;91.10;;;;;;5035353;28;20062;-75
2022/05/08 00:04:45;;;;;;;15.00;7.47;;;13.70;91.20;;;;;;5035076;28;20022;-76
2022/05/08 00:07:11;;;;;;;15.90;9.00;;;13.70;91.40;;;;;;5034840;28;20030;-75
2022/05/08 00:09:37;;;;;;;15.32;9.02;;;13.80;91.30;;;;;;5035086;28;20032;-75
2022/05/08 00:12:03;;;;;;;17.88;8.07;;;13.80;91.20;;;;;;5034795;28;20025;-75
2022/05/08 00:14:29;;;;;;;14.80;7.43;;;13.70;91.40;;;;;;5034949;28;20025;-75
2022/05/08 00:16:55;;;;;;;13.18;5.82;;;13.90;91.20;;;;;;5035057;28;20037;-75
2022/05/08 00:19:20;;;;;;;11.02;6.68;;;14.20;91.00;;;;;;5034820;28;20076;-73
2022/05/08 00:21:46;;;;;;;12.63;6.80;;;14.40;90.60;;;;;;5034335;28;20030;-75
2022/05/08 00:24:12;;;;;;;16.48;7.63;;;14.50;90.20;;;;;;5034903;28;20554;-75
2022/05/08 00:26:37;;;;;;;14.88;6.55;;;14.60;89.80;;;;;;5034559;28;20388;-75
2022/05/08 00:29:03;;;;;;;14.70;7.38;;;14.50;89.50;;;;;;5034256;28;20035;-75
2022/05/08 00:31:29;;;;;;;16.48;7.75;;;14.50;89.60;;;;;;5034340;28;20117;-73
2022/05/08 00:33:55;;;;;;;16.65;7.65;;;14.40;89.50;;;;;;5034725;28;20112;-74
2022/05/08 00:36:21;;;;;;;17.65;8.02;;;14.40;89.60;;;;;;5034240;28;20022;-74
2022/05/08 00:38:46;;;;;;;15.15;7.07;;;14.30;90.10;;;;;;5034597;28;20040;-74
2022/05/08 00:41:12;;;;;;;13.77;6.90;;;14.20;90.10;;;;;;5034258;28;20113;-74
2022/05/08 00:43:39;;;;;;;15.88;7.53;;;14.20;90.10;;;;;;5034424;28;20025;-74
2022/05/08 00:46:10;;;;;;;13.40;7.72;;;14.20;90.00;;;;;;5034145;28;20049;-74
2022/05/08 00:48:37;;;;;;;15.90;7.45;;;14.10;90.10;;;;;;5034167;28;20029;-74
2022/05/08 00:51:06;;;;;;;16.45;7.25;;;14.00;90.00;;;;;;5034380;28;20025;-74
2022/05/08 00:53:38;;;;;;;12.38;6.43;;;13.90;90.30;;;;;;5034266;28;20034;-74
2022/05/08 00:56:06;;;;;;;14.77;6.35;;;14.00;90.10;;;;;;5034317;28;20067;-74
2022/05/08 00:58:33;;;;;;;16.02;7.20;;;14.00;89.60;;;;;;5034000;28;20029;-74
2022/05/08 01:00:59;;;;;;;14.75;6.80;;;14.00;88.90;;;;;;5033830;28;20029;-74
2022/05/08 01:03:25;;;;;;;15.70;5.80;;;13.80;88.70;;;;;;5033264;28;20017;-74
2022/05/08 01:05:53;;;;;;;14.57;5.13;;;13.80;88.80;;;;;;5033922;28;20060;-74
2022/05/08 01:08:21;;;;;;;13.68;6.03;;;14.00;88.70;;;;;;5033828;28;20025;-74
2022/05/08 01:10:47;;;;;;;11.82;5.18;;;14.20;88.00;;;;;;5034121;28;20040;-74
2022/05/08 01:13:13;;;;;;;16.75;5.95;;;14.20;87.40;;;;;;5033492;28;20029;-74
2022/05/08 01:15:48;;;;;;;15.10;5.70;;;14.20;86.20;;;;;;5034010;28;20091;-75
2022/05/08 01:18:15;;;;;;;19.85;5.72;;;14.00;86.80;;;;;;5033897;28;20032;-75
2022/05/08 01:20:43;;;;;;;14.95;5.28;;;14.00;86.80;;;;;;5033809;28;20025;-74
2022/05/08 01:23:10;;;;;;;17.27;5.10;;;13.90;86.90;;;;;;5033308;28;20021;-74
2022/05/08 01:25:51;;;;;;;19.58;5.93;;;14.00;86.90;;;;;;5033836;28;20060;-74
2022/05/08 01:28:18;;;;;;;14.55;4.95;;;13.90;86.10;;;;;;5033517;28;20057;-74
2022/05/08 01:30:45;;;;;;;16.23;5.30;;;13.90;86.20;;;;;;5033699;28;20068;-74
2022/05/08 01:33:11;;;;;;;24.10;6.18;;;13.90;86.10;;;;;;5033559;28;20044;-74
2022/05/08 01:35:39;;;;;;;20.75;6.15;;;13.90;85.50;;;;;;5033433;28;20369;-74
2022/05/08 01:38:05;;;;;;;19.00;6.50;;;13.70;85.30;;;;;;5033467;28;20033;-74
2022/05/08 01:40:31;;;;;;;22.80;6.35;;;13.60;85.50;;;;;;5033598;28;20104;-74
2022/05/08 01:42:58;;;;;;;20.55;5.45;;;13.60;86.40;;;;;;5033186;28;20130;-74
2022/05/08 01:45:23;;;;;;;19.00;5.13;;;13.50;85.70;;;;;;5033230;28;20021;-74
2022/05/08 01:50:35;;;;;;;18.13;4.50;;;13.20;86.10;;;;;;5033608;28;20592;-74
2022/05/08 01:53:01;;;;;;;18.75;4.43;;;13.40;86.70;;;;;;5033154;28;20041;-74
2022/05/08 01:55:27;;;;;;;22.55;5.00;;;13.40;85.70;;;;;;5033190;28;20479;-74
2022/05/08 01:57:55;;;;;;;24.15;5.00;;;13.40;85.20;;;;;;5033449;28;20114;-74
2022/05/08 02:00:22;;;;;;;17.67;4.35;;;13.20;85.60;;;;;;5033347;28;20021;-74
2022/05/08 02:02:49;;;;;;;18.15;4.55;;;13.10;86.50;;;;;;5032941;28;20113;-74
2022/05/08 02:05:18;;;;;;;22.08;3.92;;;13.10;86.10;;;;;;5033285;28;20025;-74
2022/05/08 02:07:46;;;;;;;25.00;4.93;;;13.10;86.30;;;;;;5032878;28;20022;-75
2022/05/08 02:10:16;;;;;;;23.15;4.15;;;13.10;86.10;;;;;;5032966;28;20029;-74
2022/05/08 02:12:42;;;;;;;20.85;3.60;;;13.00;86.00;;;;;;5033020;28;20037;-74
2022/05/08 02:15:10;;;;;;;17.48;3.60;;;13.00;86.40;;;;;;5035038;28;20064;-74
2022/05/08 02:17:36;;;;;;;23.38;3.90;;;13.10;86.20;;;;;;5036809;28;20076;-74
2022/05/08 02:20:03;;;;;;;22.73;4.88;;;13.10;85.50;;;;;;5037258;28;20030;-74
2022/05/08 02:22:29;;;;;;;17.98;3.50;;;13.10;85.40;;;;;;5037099;28;20033;-74
2022/05/08 02:24:55;;;;;;;21.23;3.90;;;13.00;86.10;;;;;;5036871;28;20105;-74
2022/05/08 02:27:20;;;;;;;18.90;3.42;;;13.10;86.10;;;;;;5037056;28;20072;-76
2022/05/08 02:29:50;;;;;;;23.27;4.20;;;13.20;85.70;;;;;;5036696;28;20496;-75
2022/05/08 02:32:16;;;;;;;24.00;4.57;;;13.20;85.40;;;;;;5036608;28;20041;-74
2022/05/08 02:34:42;;;;;;;24.13;3.92;;;13.00;85.80;;;;;;5036793;28;20021;-74
2022/05/08 02:37:08;;;;;;;22.25;3.90;;;12.90;86.10;;;;;;5036513;28;20427;-74
2022/05/08 02:39:34;;;;;;;20.23;3.33;;;12.90;86.20;;;;;;5036355;28;20469;-74
2022/05/08 02:42:00;;;;;;;23.90;4.03;;;12.80;86.40;;;;;;5036507;28;20048;-74
2022/05/08 02:44:25;;;;;;;21.92;4.07;;;12.80;86.10;;;;;;5036604;28;20063;-73
2022/05/08 02:46:51;;;;;;;23.80;4.47;;;12.90;86.50;;;;;;5036251;28;20046;-74
2022/05/08 02:49:16;;;;;;;24.63;4.68;;;12.80;86.30;;;;;;5036233;28;20029;-74
2022/05/08 02:51:42;;;;;;;17.38;3.60;;;12.80;86.30;;;;;;5036473;28;20025;-74
2022/05/08 02:54:08;;;;;;;25.90;4.13;;;12.70;86.60;;;;;;5036538;28;20465;-74
2022/05/08 02:59:17;;;;;;;25.75;4.13;;;12.90;85.70;;;;;;5036302;28;20098;-74
2022/05/08 03:01:43;;;;;;;20.73;4.53;;;12.80;85.70;;;;;;5036412;28;20516;-74
2022/05/08 03:04:09;;;;;;;22.23;3.78;;;12.80;86.10;;;;;;5036124;28;20025;-74
2022/05/08 03:06:34;;;;;;;25.08;4.15;;;12.80;86.10;;;;;;5036033;28;20052;-74
2022/05/08 03:09:00;;;;;;;27.25;5.25;;;12.80;85.90;;;;;;5036171;28;20041;-74
2022/05/08 03:11:26;;;;;;;19.70;3.78;;;12.80;86.00;;;;;;5036296;28;20049;-74
2022/05/08 03:13:52;;;;;;;22.00;4.05;;;12.90;85.90;;;;;;5036187;28;20033;-74
2022/05/08 03:16:19;;;;;;;15.10;3.58;;;12.80;85.70;;;;;;5036030;28;20026;-75
2022/05/08 03:18:45;;;;;;;22.85;3.63;;;12.90;86.10;;;;;;5035531;28;20461;-74
2022/05/08 03:21:12;;;;;;;19.58;4.03;;;13.00;85.80;;;;;;5035807;28;20537;-74
2022/05/08 03:23:39;;;;;;;14.90;3.10;;;13.10;84.80;;;;;;5035754;28;20052;-74
2022/05/08 03:26:06;;;;;;;18.50;4.40;;;13.20;84.70;;;;;;5035372;28;20030;-74
2022/05/08 03:28:32;;;;;;;20.42;3.90;;;13.30;84.30;;;;;;5035655;28;20431;-74
2022/05/08 03:31:00;;;;;;;21.15;3.95;;;13.20;84.10;;;;;;5035662;28;20192;-74
2022/05/08 03:33:27;;;;;;;23.05;3.72;;;13.10;83.80;;;;;;5035446;28;20473;-74
2022/05/08 03:35:52;;;;;;;24.55;3.53;;;13.00;83.90;;;;;;5035919;28;20030;-74
2022/05/08 03:38:18;;;;;;;18.20;3.20;;;13.00;84.30;;;;;;5035223;28;20025;-74
2022/05/08 03:40:44;;;;;;;16.08;2.47;;;13.00;84.30;;;;;;5035582;28;20030;-74
2022/05/08 03:43:10;;;;;;;20.48;3.47;;;13.10;84.90;;;;;;5035378;28;20048;-74
2022/05/08 03:45:36;;;;;;;17.35;3.20;;;13.20;84.40;;;;;;5035183;28;20046;-74
2022/05/08 03:48:02;;;;;;;16.17;3.17;;;13.30;83.90;;;;;;5035604;28;20025;-74
2022/05/08 03:50:29;;;;;;;20.20;3.10;;;13.40;83.70;;;;;;5035297;28;20060;-74
2022/05/08 03:52:58;;;;;;;14.43;2.60;;;13.50;83.80;;;;;;5035295;28;20036;-74
2022/05/08 03:55:25;;;;;;;19.33;3.28;;;13.60;83.50;;;;;;5035223;28;20108;-74
2022/05/08 03:57:50;;;;;;;23.38;4.88;;;13.60;82.20;;;;;;5035298;28;20068;-74
2022/05/08 04:00:17;;;;;;;18.48;3.08;;;13.50;81.90;;;;;;5035157;28;20103;-74
2022/05/08 04:02:43;;;;;;;25.27;3.85;;;13.40;82.40;;;;;;5035063;28;20037;-74
2022/05/08 04:05:09;;;;;;;19.88;3.20;;;13.40;82.70;;;;;;5035283;28;20026;-74
2022/05/08 04:07:35;;;;;;;16.23;3.28;;;13.40;82.80;;;;;;5035283;28;20049;-74
2022/05/08 04:10:01;;;;;;;19.60;2.90;;;13.40;82.60;;;;;;5035016;28;20068;-74
2022/05/08 04:12:27;;;;;;;24.40;4.18;;;13.40;82.50;;;;;;5034600;28;20083;-74
2022/05/08 04:14:53;;;;;;;17.52;2.95;;;13.30;82.20;;;;;;5034696;28;20468;-74
2022/05/08 04:17:19;;;;;;;17.48;3.25;;;13.10;82.70;;;;;;5035025;28;20088;-74
2022/05/08 04:19:46;;;;;;;20.52;3.40;;;12.90;83.20;;;;;;5034684;28;20541;-74
2022/05/08 04:24:57;;;;;;;22.20;3.67;;;13.00;83.50;;;;;;5035036;28;20072;-74
2022/05/08 04:27:23;;;;;;;15.55;3.17;;;13.10;83.10;;;;;;5034619;28;20025;-74
2022/05/08 04:29:49;;;;;;;27.98;4.32;;;13.20;83.50;;;;;;5034775;28;20412;-74
2022/05/08 04:32:14;;;;;;;18.98;3.33;;;13.30;83.10;;;;;;5034200;28;20434;-74
2022/05/08 04:34:40;;;;;;;23.05;3.40;;;13.20;82.60;;;;;;5034699;28;20083;-74
2022/05/08 04:37:05;;;;;;;23.73;3.40;;;13.20;83.10;;;;;;5034401;28;20477;-74
2022/05/08 04:39:31;;;;;;;19.80;2.92;;;13.20;82.80;;;;;;5033823;28;20040;-74
2022/05/08 04:41:57;;;;;;;26.88;3.72;;;13.10;82.80;;;;;;5034522;28;20029;-74
2022/05/08 04:44:22;;;;;;;29.52;4.50;;;13.10;82.80;;;;;;5034538;28;20018;-74
2022/05/08 04:46:48;;;;;;;17.73;3.47;;;13.10;83.00;;;;;;5033896;28;20440;-74
2022/05/08 04:49:14;;;;;;;19.00;2.85;;;13.00;83.00;;;;;;5034195;28;20017;-74
2022/05/08 04:51:39;;;;;;;23.05;3.53;;;12.80;83.20;;;;;;5033963;28;20041;-74
2022/05/08 04:54:05;;;;;;;20.30;3.25;;;12.80;83.50;;;;;;5034390;28;20026;-74
2022/05/08 04:56:31;;;;;;;19.08;3.22;;;12.70;84.50;;;;;;5034305;28;20017;-74
2022/05/08 04:58:57;;;;;;;20.42;3.17;;;12.60;84.70;;;;;;5033951;28;20034;-74
2022/05/08 05:01:22;;;;;;;20.17;3.00;;;12.70;84.60;;;;;;5034184;28;20022;-74
2022/05/08 05:03:49;;;;;;;25.73;3.97;;;12.80;84.30;;;;;;5034221;28;20059;-74
2022/05/08 05:06:14;;;;;;;18.65;3.53;;;12.70;83.60;;;;;;5033928;28;20033;-74
2022/05/08 05:08:40;;;;;;;16.80;2.42;;;12.70;84.20;;;;;;5034062;28;20384;-74
2022/05/08 05:11:08;;;;;;;21.98;2.90;;;12.80;84.50;;;;;;5033927;28;20021;-74
2022/05/08 05:13:34;;;;;;;21.52;3.40;;;12.90;84.00;;;;;;5033631;28;20113;-74
2022/05/08 05:16:00;;;;;;;20.95;3.40;;;13.10;83.50;;;;;;5033590;28;20026;-75
2022/05/08 05:18:25;;;;;;;21.92;3.40;;;12.90;82.80;;;;;;5033697;28;20025;-75
2022/05/08 05:20:51;;;;;;;22.38;3.35;;;12.70;83.60;;;;;;5033675;28;20017;-74
2022/05/08 05:23:16;;;;;;;26.00;4.20;;;12.70;83.60;;;;;;5033748;28;20461;-75
2022/05/08 05:25:42;;;;;;;25.58;3.88;;;12.70;84.10;;;;;;5033776;28;20028;-75
2022/05/08 05:28:08;;;;;;;23.88;3.60;;;12.40;84.30;;;;;;5033729;28;20021;-76
2022/05/08 05:30:34;;;;;;;17.00;2.70;;;12.30;84.80;;;;;;5033718;28;20072;-73
2022/05/08 05:32:59;;;;;;;28.15;4.07;;;12.50;85.10;;;;;;5033520;28;20037;-75
2022/05/08 05:35:25;;;;;;;20.98;3.65;;;12.60;83.70;;;;;;5033214;28;20017;-75
2022/05/08 05:37:50;;;;;;;20.83;4.43;;;12.40;84.30;;;;;;5033355;28;20041;-75
2022/05/08 05:40:16;;;;;;;18.38;3.40;;;12.20;85.30;;;;;;5033418;28;20029;-75
2022/05/08 05:42:41;;;;;;;23.70;3.90;;;12.20;85.40;;;;;;5033241;28;20473;-75
2022/05/08 05:45:07;;;;;;;20.58;3.60;;;12.40;84.80;;;;;;5033266;28;20029;-75
2022/05/08 05:47:52;;;;;;;18.52;2.88;;;12.30;84.80;;;;;;5033098;28;20489;-73
2022/05/08 05:50:22;;;;;;;23.83;3.70;;;12.40;85.20;;;;;;5033298;28;20029;-73
2022/05/08 05:52:49;;;;;;;24.38;4.35;;;12.40;84.50;;;;;;5033029;28;20568;-73
2022/05/08 05:55:16;;;;;;;22.05;3.40;;;12.50;84.50;;;;;;5032922;28;20547;-74
2022/05/08 05:57:42;;;;;;;16.30;3.28;;;12.60;84.10;;;;;;5033228;28;20029;-73
2022/05/08 06:00:10;;;;;;;21.38;3.60;;;12.60;84.20;;;;;;5033301;28;20017;-73
2022/05/08 06:02:36;;;;;;;16.83;2.88;;;12.70;83.90;;;;;;5033307;28;20040;-74
2022/05/08 06:05:02;;;;;;;18.33;3.33;;;12.90;83.70;;;;;;5033132;28;20056;-74
2022/05/08 06:07:28;;;;;;;17.55;3.45;;;12.90;82.40;;;;;;5032718;28;20057;-74
2022/05/08 06:09:53;;;;;;;14.10;3.08;;;12.70;83.00;;;;;;5033352;28;20041;-74
2022/05/08 06:12:19;;;;;;;21.52;2.92;;;12.70;83.90;;;;;;5032985;28;20029;-74
2022/05/08 06:14:46;;;;;;;13.40;2.33;;;12.90;82.60;;;;;;5032605;28;20022;-74
2022/05/08 06:17:12;;;;;;;18.08;3.25;;;12.90;82.00;;;;;;5032960;28;20159;-74
2022/05/08 06:19:38;;;;;;;23.60;3.17;;;13.00;81.60;;;;;;5032944;28;20032;-74
2022/05/08 06:22:04;;;;;;;22.15;3.70;;;12.90;81.20;;;;;;5033167;28;20096;-74
2022/05/08 06:24:30;;;;;;;23.08;3.45;;;12.90;81.50;;;;;;5033143;28;20373;-74
2022/05/08 06:26:56;;;;;;;24.33;3.05;;;12.90;81.40;;;;;;5032964;28;20393;-74
2022/05/08 06:29:22;;;;;;;14.93;2.85;;;12.90;82.20;;;;;;5032990;28;20027;-74
2022/05/08 06:31:50;;;;;;;26.15;3.70;;;12.80;81.50;;;;;;5032529;28;20057;-74
2022/05/08 06:34:16;;;;;;;17.38;2.90;;;12.90;81.70;;;;;;5032988;28;20460;-74
2022/05/08 06:36:42;;;;;;;18.88;2.85;;;12.90;81.00;;;;;;5032735;28;20066;-74
2022/05/08 06:39:07;;;;;;;18.42;2.88;;;12.90;81.10;;;;;;5033001;28;20026;-74
2022/05/08 06:41:33;;;;;;;15.82;2.25;;;12.90;80.50;;;;;;5033074;28;20469;-74
2022/05/08 06:43:59;;;;;;;18.15;2.25;;;12.90;81.30;;;;;;5032708;28;20028;-74
2022/05/08 06:46:25;;;;;;;14.50;2.33;;;13.10;80.90;;;;;;5032581;28;20045;-74
2022/05/08 06:48:50;;;;;;;21.77;2.72;;;13.20;80.90;;;;;;5032726;28;20109;-74
2022/05/08 06:51:16;;;;;;;20.77;2.97;;;13.40;80.30;;;;;;5032761;28;20029;-74
2022/05/08 06:53:43;;;;;;;11.88;2.55;;;13.50;79.20;;;;;;5032888;28;20060;-74
2022/05/08 06:56:13;;;;;;;15.05;2.75;;;13.60;78.80;;;;;;5032635;28;20029;-74
2022/05/08 07:01:41;;;;;;;15.60;1.90;;;13.60;76.40;;;;;;5033607;28;20084;-74
2022/05/08 07:04:08;;;;;;;14.77;2.40;;;13.50;77.00;;;;;;5036195;28;20053;-74
2022/05/08 07:06:35;;;;;;;18.83;2.80;;;13.60;77.90;;;;;;5036020;28;20322;-74
2022/05/08 07:09:02;;;;;;;15.15;2.35;;;13.60;76.40;;;;;;5036188;28;20112;-74
2022/05/08 07:11:30;;;;;;;15.10;2.00;;;13.60;77.50;;;;;;5035820;28;20021;-74
2022/05/08 07:14:00;;;;;;;14.85;2.35;;;13.70;77.60;;;;;;5036265;28;20136;-74
2022/05/08 07:16:26;;;;;;;17.98;3.03;;;13.80;77.40;;;;;;5036113;28;20021;-74
2022/05/08 07:18:52;;;;;;;20.73;2.60;;;14.00;76.90;;;;;;5036143;28;20025;-74
2022/05/08 07:21:19;;;;;;;14.48;2.38;;;14.00;76.30;;;;;;5035794;28;20032;-74
2022/05/08 07:23:45;;;;;;;17.17;2.30;;;14.00;76.50;;;;;;5035964;28;20122;-74
2022/05/08 07:26:11;;;;;;;16.77;2.47;;;14.00;75.80;;;;;;5036001;28;20036;-74
2022/05/08 07:28:37;;;;;;;16.42;2.38;;;14.00;75.60;;;;;;5035959;28;20018;-74
2022/05/08 07:31:03;;;;;;;15.18;1.83;;;14.00;76.40;;;;;;5035923;28;20032;-74
2022/05/08 07:33:30;;;;;;;15.40;2.03;;;14.20;77.30;;;;;;5035603;28;20033;-74
2022/05/08 07:36:14;;;;;;;14.55;2.95;;;14.30;75.40;;;;;;5035511;28;20519;-74
2022/05/08 07:38:44;;;;;;;10.60;1.70;;;14.30;75.70;;;;;;5035878;28;20026;-74
2022/05/08 07:41:17;;;;;;;17.83;2.40;;;14.50;75.30;;;;;;5035623;28;20088;-74
2022/05/08 07:43:45;;;;;;;15.70;2.20;;;14.60;76.50;;;;;;5035359;28;20017;-74
2022/05/08 07:46:12;;;;;;;13.57;2.28;;;14.70;75.20;;;;;;5035045;28;20512;-74
2022/05/08 07:48:37;;;;;;;16.08;2.30;;;14.80;74.20;;;;;;5035471;28;20029;-74
2022/05/08 07:51:03;;;;;;;12.45;1.63;;;14.90;73.30;;;;;;5035357;28;20424;-74
2022/05/08 07:53:30;;;;;;;11.68;1.40;;;14.80;73.80;;;;;;5035237;28;20048;-74
2022/05/08 07:55:57;;;;;;;15.18;2.42;;;14.90;73.80;;;;;;5035247;28;20030;-74
2022/05/08 07:58:23;;;;;;;13.52;1.95;;;15.00;72.60;;;;;;5035188;28;20489;-74
2022/05/08 08:00:54;;;;;;;10.25;2.15;;;15.10;72.90;;;;;;5035035;28;20104;-74
2022/05/08 08:03:22;;;;;;;14.82;2.72;;;15.20;72.90;;;;;;5035026;28;20426;-74
2022/05/08 08:05:48;;;;;;;16.08;1.98;;;15.50;72.70;;;;;;5034939;28;20380;-74
2022/05/08 08:08:15;;;;;;;11.48;2.65;;;15.50;70.90;;;;;;5035076;28;20373;-74
2022/05/08 08:10:41;;;;;;;15.07;2.78;;;15.40;71.70;;;;;;5034809;28;20477;-74
2022/05/08 08:13:06;;;;;;;14.65;2.60;;;15.30;71.60;;;;;;5034869;28;20060;-74
2022/05/08 08:15:32;;;;;;;18.17;2.47;;;15.30;73.00;;;;;;5034577;28;20022;-74
2022/05/08 08:17:57;;;;;;;14.20;1.80;;;15.50;71.20;;;;;;5034685;28;20086;-74
2022/05/08 08:20:23;;;;;;;16.02;2.55;;;15.40;71.70;;;;;;5034546;28;20032;-74
2022/05/08 08:22:49;;;;;;;12.80;2.05;;;15.50;71.90;;;;;;5034608;28;20033;-74
2022/05/08 08:25:14;;;;;;;12.23;2.40;;;15.70;71.80;;;;;;5034632;28;20040;-74
2022/05/08 08:27:40;;;;;;;12.48;1.98;;;15.80;70.50;;;;;;5034549;28;20033;-74
2022/05/08 08:30:07;;;;;;;13.75;1.95;;;15.90;70.70;;;;;;5034827;28;20346;-74
2022/05/08 08:32:33;;;;;;;13.32;2.60;;;15.90;70.50;;;;;;5034444;28;20493;-74
2022/05/08 08:34:58;;;;;;;15.25;2.63;;;15.90;69.50;;;;;;5034274;28;20036;-74
2022/05/08 08:37:24;;;;;;;9.95;1.98;;;15.80;68.40;;;;;;5034637;28;20032;-74
2022/05/08 08:39:50;;;;;;;12.63;1.60;;;15.90;69.20;;;;;;5034584;28;20104;-74
2022/05/08 08:42:41;;;;;;;13.02;2.10;;;15.90;68.50;;;;;;5034219;28;20485;-74
2022/05/08 08:48:03;;;;;;;9.70;2.05;;;15.90;68.40;;;;;;5034624;28;20125;-75
2022/05/08 08:50:29;;;;;;;11.85;1.95;;;16.00;68.90;;;;;;5034513;28;20104;-74
2022/05/08 08:52:57;;;;;;;13.20;2.05;;;16.20;69.40;;;;;;5033701;28;20041;-74
2022/05/08 08:55:23;;;;;;;11.57;2.05;;;16.30;66.80;;;;;;5034349;28;20025;-74
2022/05/08 08:57:49;;;;;;;10.35;1.85;;;16.40;67.60;;;;;;5034030;28;20481;-74
2022/05/08 09:00:16;;;;;;;16.70;2.35;;;16.50;66.30;;;;;;5033898;28;20079;-75
2022/05/08 09:02:42;;;;;;;14.07;1.95;;;16.60;65.70;;;;;;5033935;28;20392;-75
2022/05/08 09:05:10;;;;;;;11.13;1.50;;;16.50;65.60;;;;;;5034190;28;20018;-75
2022/05/08 09:07:47;;;;;;;9.65;1.70;;;16.40;67.30;;;;;;5033872;28;20025;-74
2022/05/08 09:10:18;;;;;;;12.05;1.40;;;16.80;66.60;;;;;;5033882;28;20033;-74
2022/05/08 09:12:53;;;;;;;9.07;2.03;;;17.00;65.70;;;;;;5033699;28;20033;-74
2022/05/08 09:15:23;;;;;;;15.35;1.88;;;17.00;63.10;;;;;;5033711;28;20037;-74
2022/05/08 09:17:51;;;;;;;13.13;2.58;;;16.80;64.40;;;;;;5033711;28;20544;-74
2022/05/08 09:20:26;;;;;;;9.70;1.75;;;16.70;65.20;;;;;;5033736;28;20044;-74
2022/05/08 09:23:02;;;;;;;7.57;1.60;;;16.90;65.70;;;;;;5033543;28;20021;-74
2022/05/08 09:25:47;;;;;;;10.95;1.73;;;17.00;64.90;;;;;;5032986;28;20108;-74
2022/05/08 09:28:26;;;;;;;8.52;1.42;;;17.10;65.70;;;;;;5033507;28;20022;-74
2022/05/08 09:31:00;;;;;;;9.23;2.17;;;17.20;64.30;;;;;;5033367;28;20053;-74
2022/05/08 09:33:27;;;;;;;9.18;2.10;;;17.30;65.30;;;;;;5033639;28;20029;-74
2022/05/08 09:35:53;;;;;;;13.80;2.88;;;17.50;64.00;;;;;;5033278;28;20026;-74
2022/05/08 09:38:18;;;;;;;6.53;1.58;;;17.60;61.50;;;;;;5033243;28;20030;-74
2022/05/08 09:40:47;;;;;;;9.55;1.83;;;17.90;61.30;;;;;;5033541;28;20105;-74
2022/05/08 09:43:28;;;;;;;10.15;2.28;;;17.90;61.20;;;;;;5033442;28;20377;-74
2022/05/08 09:45:58;;;;;;;12.38;2.30;;;17.90;60.00;;;;;;5033013;28;20442;-74
2022/05/08 09:48:26;;;;;;;13.68;2.10;;;17.90;60.30;;;;;;5033172;28;20021;-74
2022/05/08 09:51:00;;;;;;;10.75;1.60;;;18.10;61.60;;;;;;5033227;28;20030;-74
2022/05/08 09:53:27;;;;;;;10.65;1.52;;;18.20;58.20;;;;;;5033430;28;20041;-74
2022/05/08 09:55:57;;;;;;;8.65;1.50;;;18.30;59.10;;;;;;5033070;28;20030;-74
2022/05/08 09:58:23;;;;;;;12.70;1.83;;;18.40;58.00;;;;;;5033348;28;20025;-74
2022/05/08 10:00:51;;;;;;;10.20;1.52;;;18.30;57.90;;;;;;5033030;28;20029;-74
2022/05/08 10:03:20;;;;;;;8.27;1.40;;;18.30;59.00;;;;;;5032989;28;20018;-74
2022/05/08 10:05:47;;;;;;;10.60;1.48;;;18.40;58.80;;;;;;5033132;28;20109;-74
2022/05/08 10:08:14;;;;;;;9.38;1.98;;;18.60;60.00;;;;;;5032887;28;20136;-74
2022/05/08 10:14:06;;;;;;;7.90;1.70;;;18.70;60.10;;;;;;5032764;28;20107;-74
2022/05/08 10:16:57;;;;;;;10.40;1.33;;;18.80;58.60;;;;;;5032713;28;20025;-74
2022/05/08 10:19:25;;;;;;;7.95;1.92;;;19.10;60.00;;;;;;5032855;28;20029;-74
2022/05/08 10:21:57;;;;;;;11.38;1.40;;;19.20;56.20;;;;;;5032572;28;20021;-74
2022/05/08 10:24:37;;;;;;;12.02;2.22;;;19.30;57.30;;;;;;5032925;28;20033;-74
2022/05/08 10:27:20;;;;;;;7.78;1.88;;;19.40;57.00;;;;;;5033021;28;20029;-74
2022/05/08 10:29:48;;;;;;;11.65;1.70;;;19.50;57.20;;;;;;5032815;28;20543;-74
2022/05/08 10:32:34;;;;;;;8.02;1.48;;;19.80;56.90;;;;;;5032677;28;20061;-74
2022/05/08 10:35:19;;;;;;;11.05;1.77;;;19.60;54.50;;;;;;5032594;28;20045;-74
2022/05/08 10:38:01;;;;;;;11.77;1.80;;;19.30;56.90;;;;;;5035534;28;20029;-74
2022/05/08 10:40:30;;;;;;;12.05;2.10;;;19.30;58.60;;;;;;5036969;28;20026;-74
2022/05/08 10:43:01;;;;;;;7.65;1.58;;;19.60;57.40;;;;;;5036837;28;20047;-74
2022/05/08 10:45:33;;;;;;;12.55;1.88;;;19.60;56.00;;;;;;5036247;28;20029;-74
2022/05/08 10:48:08;;;;;;;9.85;1.52;;;19.60;55.30;;;;;;5036564;28;20400;-74
2022/05/08 10:50:39;;;;;;;11.70;1.75;;;19.60;52.90;;;;;;5036399;28;20401;-74
2022/05/08 10:53:06;;;;;;;11.32;2.17;;;19.30;55.60;;;;;;5036192;28;20065;-74
2022/05/08 10:55:32;;;;;;;7.93;1.90;;;19.50;55.90;;;;;;5036268;28;20076;-74
2022/05/08 10:57:58;;;;;;;7.50;1.60;;;19.60;53.40;;;;;;5036259;28;20030;-74
2022/05/08 11:00:31;;;;;;;7.60;1.63;;;19.60;54.10;;;;;;5036205;28;20491;-74
2022/05/08 11:02:58;;;;;;;8.35;1.98;;;19.70;55.90;;;;;;5036068;28;20097;-75
2022/05/08 11:05:26;;;;;;;13.10;2.05;;;19.80;55.40;;;;;;5036060;28;20026;-74
2022/05/08 11:07:52;;;;;;;12.48;1.73;;;20.00;54.20;;;;;;5036061;28;20026;-74
2022/05/08 11:10:28;;;;;;;8.98;1.85;;;19.90;54.30;;;;;;5036190;28;20147;-74
2022/05/08 11:13:11;;;;;;;8.65;1.35;;;19.80;55.60;;;;;;5035993;28;20030;-74
2022/05/08 11:15:46;;;;;;;7.85;1.60;;;19.80;53.90;;;;;;5035982;28;20083;-74
2022/05/08 11:18:16;;;;;;;7.53;1.35;;;19.80;53.40;;;;;;5036164;28;20083;-74
2022/05/08 11:20:50;;;;;;;9.63;1.70;;;19.80;53.00;;;;;;5035545;28;20037;-74
2022/05/08 11:23:41;;;;;;;7.13;1.55;;;20.00;53.60;;;;;;5035670;28;20393;-74
2022/05/08 11:26:09;;;;;;;4.28;1.10;;;20.30;54.20;;;;;;5035785;28;20090;-74
2022/05/08 11:28:36;;;;;;;6.65;1.30;;;20.70;52.30;;;;;;5035539;28;20464;-74
2022/05/08 11:31:15;;;;;;;10.00;1.52;;;21.00;51.70;;;;;;5035187;28;20465;-74
2022/05/08 11:36:35;;;;;;;6.88;1.38;;;20.90;51.40;;;;;;5035632;28;20024;-74
2022/05/08 11:39:15;;;;;;;7.30;1.90;;;20.80;51.70;;;;;;5035375;28;20091;-74
2022/05/08 11:41:51;;;;;;;7.60;1.33;;;20.90;52.00;;;;;;5035665;28;20088;-74
2022/05/08 11:44:17;;;;;;;8.27;1.48;;;20.90;53.00;;;;;;5035446;28;20017;-74
2022/05/08 11:46:47;;;;;;;9.80;1.30;;;21.00;51.60;;;;;;5034663;28;20413;-74
2022/05/08 11:49:16;;;;;;;8.18;1.33;;;21.00;51.70;;;;;;5035213;28;20017;-74
2022/05/08 11:51:44;;;;;;;6.68;1.38;;;21.10;50.40;;;;;;5035126;28;20025;-75
2022/05/08 11:54:29;;;;;;;10.10;2.17;;;21.00;52.10;;;;;;5035249;28;20037;-74
2022/05/08 11:57:13;;;;;;;9.57;1.38;;;21.10;51.10;;;;;;5035040;28;20022;-74
2022/05/08 11:59:39;;;;;;;7.47;1.20;;;21.20;50.50;;;;;;5035014;28;20503;-74
2022/05/08 12:02:05;;;;;;;7.05;1.52;;;21.10;51.60;;;;;;5034979;28;20029;-74
2022/05/08 12:04:34;;;;;;;7.68;1.33;;;21.00;51.40;;;;;;5035205;28;20518;-74
2022/05/08 12:07:13;;;;;;;5.80;1.35;;;21.10;51.70;;;;;;5035210;28;20045;-75
2022/05/08 12:09:44;;;;;;;5.95;0.90;;;21.40;51.80;;;;;;5034921;28;20546;-75
2022/05/08 12:12:36;;;;;;;6.15;1.38;;;21.70;51.10;;;;;;5034688;28;20029;-75
2022/05/08 12:15:07;;;;;;;5.90;1.25;;;21.60;49.60;;;;;;5034868;28;20120;-74
2022/05/08 12:17:42;;;;;;;7.00;1.20;;;21.50;50.30;;;;;;5034690;28;20036;-74
2022/05/08 12:20:35;;;;;;;7.88;1.08;;;21.60;50.40;;;;;;5034635;28;20093;-75
2022/05/08 12:23:05;;;;;;;8.18;1.13;;;21.60;47.90;;;;;;5034632;28;20029;-74
2022/05/08 12:25:32;;;;;;;9.95;1.50;;;21.60;48.80;;;;;;5034848;28;20433;-74
2022/05/08 12:27:58;;;;;;;4.82;1.02;;;21.70;48.10;;;;;;5034722;28;20112;-74
2022/05/08 12:30:24;;;;;;;6.57;1.20;;;21.60;48.00;;;;;;5034475;28;20105;-74
2022/05/08 12:32:49;;;;;;;6.03;1.30;;;21.60;47.00;;;;;;5034121;28;20092;-75
2022/05/08 12:35:15;;;;;;;4.18;1.00;;;21.80;46.60;;;;;;5034437;28;20021;-74
2022/05/08 12:37:41;;;;;;;5.45;1.05;;;22.00;46.80;;;;;;5034388;28;20048;-74
2022/05/08 12:40:09;;;;;;;6.32;1.30;;;22.30;46.20;;;;;;5034292;28;20028;-74
2022/05/08 12:42:35;;;;;;;5.75;1.20;;;22.30;45.70;;;;;;5034183;28;20489;-74
2022/05/08 12:45:01;;;;;;;6.78;1.10;;;22.20;46.70;;;;;;5034372;28;20120;-74
2022/05/08 12:47:26;;;;;;;7.60;1.08;;;22.00;46.20;;;;;;5033751;28;20128;-74
2022/05/08 12:49:53;;;;;;;5.20;1.15;;;21.80;46.80;;;;;;5034176;28;20422;-74
2022/05/08 12:52:19;;;;;;;9.65;1.08;;;21.90;47.20;;;;;;5034265;28;20022;-74
2022/05/08 12:54:46;;;;;;;7.03;0.90;;;22.10;46.60;;;;;;5034177;28;20370;-74
2022/05/08 12:59:42;;;;;;;6.25;1.33;;;22.10;46.80;;;;;;5034354;28;20069;-75
2022/05/08 12:59:59;;;;;;;5.68;0.88;;;22.20;44.80;;;;;;5032909;28;20029;-74
2022/05/08 13:02:26;;;;;;;5.45;1.10;;;22.00;45.40;;;;;;5034132;28;20026;-75
2022/05/08 13:04:53;;;;;;;3.35;0.80;;;22.20;45.40;;;;;;5034021;28;20030;-75